Time;durP1;ratioP1;P1;durP2;ratioP2;P2;SDS_P1;SDS_P2;PMS_P1;PMS_P2;Temp;Humidity;BMP_temperature;BMP_pressure;BME280_temperature;BME280_humidity;BME280_pressure;Samples;Min_cycle;Max_cycle;Signal;HPM_P1;HPM_P2
2022/03/21 00:03:55;;;;;;;4.28;3.30;;;;;;;3.98;54.33;99982.13;10428332;28;20764;-79
2022/03/21 00:08:59;;;;;;;4.70;3.40;;;;;;;3.94;54.11;99970.75;10440181;28;20052;-80
2022/03/21 00:14:04;;;;;;;5.72;3.80;;;;;;;3.89;54.97;99983.47;10445429;28;20445;-80
2022/03/21 00:19:07;;;;;;;4.22;3.60;;;;;;;3.82;54.85;99988.25;10444397;28;20076;-80
2022/03/21 00:24:12;;;;;;;4.38;3.80;;;;;;;3.77;55.26;99987.63;10430586;28;20046;-80
2022/03/21 00:29:14;;;;;;;5.93;3.78;;;;;;;3.73;55.02;99983.41;10445480;28;20102;-79
2022/03/21 00:34:19;;;;;;;4.82;3.50;;;;;;;3.69;55.16;99981.84;10445154;28;20597;-79
2022/03/21 00:39:23;;;;;;;4.03;3.60;;;;;;;3.64;54.95;99978.56;10445155;28;20049;-79
2022/03/21 00:44:27;;;;;;;5.10;3.33;;;;;;;3.59;54.80;99981.44;10436111;28;20053;-81
2022/03/21 00:49:30;;;;;;;3.80;3.40;;;;;;;3.52;55.21;99982.69;10425823;28;20080;-80
2022/03/21 00:54:35;;;;;;;4.90;3.58;;;;;;;3.49;55.50;99977.50;10420367;28;20056;-81
2022/03/21 00:59:38;;;;;;;4.20;3.50;;;;;;;3.41;55.46;99974.38;10423505;28;20052;-80
2022/03/21 01:04:46;;;;;;;4.40;3.72;;;;;;;3.35;55.35;99978.22;10435295;28;20137;-80
2022/03/21 01:09:51;;;;;;;4.47;3.55;;;;;;;3.32;55.71;99973.91;10430714;28;20053;-81
2022/03/21 01:14:54;;;;;;;3.83;3.53;;;;;;;3.25;56.33;99969.81;10425131;28;20042;-80
2022/03/21 01:19:57;;;;;;;3.53;3.20;;;;;;;3.20;55.89;99969.19;10422032;28;20075;-80
2022/03/21 01:25:01;;;;;;;3.90;3.50;;;;;;;3.12;56.12;99964.25;10410714;28;20136;-80
2022/03/21 01:30:06;;;;;;;3.92;3.33;;;;;;;3.07;56.44;99959.16;10432488;28;20475;-80
2022/03/21 01:35:11;;;;;;;4.07;3.47;;;;;;;3.00;56.48;99963.03;10437079;28;20073;-78
2022/03/21 01:40:17;;;;;;;4.28;3.50;;;;;;;2.92;57.10;99970.53;10438967;28;20140;-79
2022/03/21 01:45:20;;;;;;;4.72;3.72;;;;;;;2.75;57.65;99964.25;10446440;28;20033;-79
2022/03/21 01:50:24;;;;;;;4.15;3.40;;;;;;;2.67;58.41;99965.53;10428118;28;20613;-80
2022/03/21 01:55:48;;;;;;;4.00;3.60;;;;;;;2.62;58.55;99968.41;10436953;28;20042;-78
2022/03/21 02:00:52;;;;;;;5.43;3.88;;;;;;;2.50;58.89;99969.00;10437823;28;20073;-79
2022/03/21 02:05:56;;;;;;;4.97;3.53;;;;;;;2.34;60.19;99964.38;10432747;28;20128;-79
2022/03/21 02:11:01;;;;;;;4.28;3.42;;;;;;;2.28;60.23;99962.00;10438206;28;20088;-81
2022/03/21 02:16:06;;;;;;;3.90;3.50;;;;;;;2.28;60.11;99964.69;10440052;28;20490;-78
2022/03/21 02:21:18;;;;;;;5.35;3.60;;;;;;;2.26;59.77;99958.56;10435949;28;20048;-78
2022/03/21 02:26:23;;;;;;;5.22;4.00;;;;;;;2.17;61.02;99958.97;10427070;28;20107;-78
2022/03/21 02:31:28;;;;;;;3.85;3.47;;;;;;;2.09;61.82;99954.84;10435762;28;20136;-79
2022/03/21 02:36:33;;;;;;;4.25;3.58;;;;;;;2.05;61.89;99958.59;10429272;28;20053;-79
2022/03/21 02:41:37;;;;;;;4.22;3.50;;;;;;;1.96;62.76;99953.69;10435752;28;20144;-78
2022/03/21 02:46:40;;;;;;;4.60;3.78;;;;;;;1.94;62.51;99955.56;10457136;28;20037;-78
2022/03/21 02:51:44;;;;;;;4.88;3.55;;;;;;;1.90;62.04;99943.34;10416164;28;20068;-80
2022/03/21 02:56:49;;;;;;;4.25;3.50;;;;;;;1.88;62.30;99942.53;10424202;28;20124;-79
2022/03/21 03:01:53;;;;;;;4.32;3.50;;;;;;;1.84;62.61;99949.78;10418579;28;20140;-78
2022/03/21 03:06:57;;;;;;;4.45;3.95;;;;;;;1.79;63.06;99950.00;10423799;28;20045;-78
2022/03/21 03:12:01;;;;;;;4.97;3.33;;;;;;;1.74;63.50;99944.00;10438246;28;20506;-78
2022/03/21 03:17:06;;;;;;;4.47;3.60;;;;;;;1.69;63.29;99941.56;10434360;28;20053;-78
2022/03/21 03:22:09;;;;;;;4.50;3.70;;;;;;;1.68;63.95;99938.97;10451866;28;20041;-78
2022/03/21 03:27:14;;;;;;;3.85;3.45;;;;;;;1.62;64.78;99939.22;10481117;28;20394;-78
2022/03/21 03:32:17;;;;;;;3.92;3.50;;;;;;;1.55;64.78;99935.97;10440096;28;20060;-78
2022/03/21 03:37:21;;;;;;;5.43;3.60;;;;;;;1.50;65.93;99932.66;10443988;28;20037;-78
2022/03/21 03:42:25;;;;;;;4.28;3.53;;;;;;;1.44;66.19;99931.13;10483448;28;20044;-78
2022/03/21 03:47:29;;;;;;;5.00;3.50;;;;;;;1.39;67.95;99933.13;10488608;28;20080;-77
2022/03/21 03:52:32;;;;;;;5.22;3.78;;;;;;;1.30;68.75;99939.66;10471469;28;20065;-78
2022/03/21 03:57:36;;;;;;;6.20;3.85;;;;;;;1.25;69.23;99938.13;10485420;28;20045;-78
2022/03/21 04:08:00;;;;;;;6.10;3.50;;;;;;;1.09;70.13;99938.81;10488161;28;20112;-78
2022/03/21 04:13:05;;;;;;;4.53;3.50;;;;;;;1.03;71.57;99933.72;10465798;28;20479;-78
2022/03/21 04:18:08;;;;;;;4.07;3.67;;;;;;;0.91;74.32;99930.66;10446209;28;20043;-79
2022/03/21 04:23:12;;;;;;;4.38;3.85;;;;;;;0.81;75.55;99931.94;10416184;28;20145;-79
2022/03/21 04:28:18;;;;;;;6.53;3.95;;;;;;;0.67;79.75;99943.13;10408124;28;20464;-79
2022/03/21 04:33:22;;;;;;;4.10;3.70;;;;;;;0.57;81.95;99953.22;10429030;28;20045;-79
2022/03/21 04:38:26;;;;;;;4.60;3.95;;;;;;;0.49;83.18;99951.78;10426029;28;20041;-79
2022/03/21 04:43:32;;;;;;;4.50;3.88;;;;;;;0.45;81.95;99948.41;10428418;28;20037;-80
2022/03/21 04:48:37;;;;;;;4.50;3.72;;;;;;;0.37;84.15;99951.34;10438735;28;20068;-79
2022/03/21 04:53:41;;;;;;;5.85;3.80;;;;;;;0.34;83.73;99953.25;10440470;28;20488;-82
2022/03/21 04:58:47;;;;;;;4.65;3.80;;;;;;;0.30;84.52;99958.66;10427130;28;20057;-78
2022/03/21 05:03:51;;;;;;;5.15;3.83;;;;;;;0.27;84.81;99958.81;10417311;28;20100;-79
2022/03/21 05:08:55;;;;;;;4.38;3.55;;;;;;;0.25;84.73;99962.41;10384563;28;20054;-78
2022/03/21 05:14:02;;;;;;;4.65;3.90;;;;;;;0.22;84.87;99970.50;10441686;28;20132;-77
2022/03/21 05:19:07;;;;;;;4.47;3.78;;;;;;;0.19;85.15;99975.91;10468133;28;20099;-79
2022/03/21 05:40:34;;;;;;;5.93;3.67;;;;;;;0.14;85.18;99970.78;10415834;28;20011;-77
2022/03/21 05:45:38;;;;;;;3.90;3.50;;;;;;;0.15;86.48;99961.91;10437025;22;20060;-52
2022/03/21 05:50:42;;;;;;;6.32;3.88;;;;;;;0.18;85.95;99959.13;10433184;28;20036;-48
2022/03/21 05:55:45;;;;;;;4.03;3.60;;;;;;;0.20;85.84;99967.88;10453264;28;20041;-50
2022/03/21 06:00:50;;;;;;;4.18;3.42;;;;;;;0.26;86.73;99972.09;10448123;28;20042;-48
2022/03/21 06:05:55;;;;;;;4.88;3.90;;;;;;;0.28;89.47;99970.25;10419696;28;20508;-52
2022/03/21 06:11:04;;;;;;;4.50;3.70;;;;;;;0.37;86.93;99974.34;10433080;28;20811;-56
2022/03/21 06:16:09;;;;;;;6.68;3.40;;;;;;;0.42;87.08;99982.97;10412244;28;20048;-51
2022/03/21 06:21:13;;;;;;;4.00;3.50;;;;;;;0.50;90.56;99991.53;10418313;28;20045;-50
2022/03/21 06:26:16;;;;;;;4.68;3.72;;;;;;;0.58;87.96;99985.94;10452224;28;20440;-50
2022/03/21 06:31:21;;;;;;;4.13;3.58;;;;;;;0.69;88.55;100004.06;10430069;28;20164;-53
2022/03/21 06:36:24;;;;;;;5.15;3.60;;;;;;;0.76;88.89;99992.31;10432118;28;20049;-54
2022/03/21 06:41:27;;;;;;;4.35;3.58;;;;;;;0.86;86.24;100004.28;10433321;28;20679;-56
2022/03/21 06:46:32;;;;;;;4.20;3.70;;;;;;;1.00;86.73;100005.53;10450816;28;20053;-55
2022/03/21 06:51:35;;;;;;;4.78;3.70;;;;;;;1.10;85.64;100004.25;10440965;28;20052;-57
2022/03/21 06:56:37;;;;;;;4.80;3.40;;;;;;;1.22;83.86;100019.66;10429528;28;20067;-52
2022/03/21 07:01:42;;;;;;;7.15;3.45;;;;;;;1.34;84.48;100022.75;10433004;28;20453;-54
2022/03/21 07:06:45;;;;;;;6.35;3.72;;;;;;;1.45;85.54;100022.28;10450021;28;20478;-55
2022/03/21 07:11:48;;;;;;;3.80;3.33;;;;;;;1.60;84.60;100032.28;10451265;28;20116;-51
2022/03/21 07:16:52;;;;;;;3.97;3.33;;;;;;;1.77;81.69;100033.34;10417020;28;20065;-53
2022/03/21 07:21:55;;;;;;;3.88;3.40;;;;;;;2.02;80.70;100037.59;10411934;28;20045;-53
2022/03/21 07:26:59;;;;;;;3.80;3.40;;;;;;;2.19;78.02;100050.16;10457313;28;20068;-50
2022/03/21 07:32:05;;;;;;;3.85;3.08;;;;;;;2.42;72.07;100047.34;10429005;28;20049;-54
2022/03/21 07:37:08;;;;;;;3.53;3.22;;;;;;;2.63;75.62;100044.66;10416820;28;20037;-53
2022/03/21 07:42:15;;;;;;;4.47;3.20;;;;;;;2.80;72.91;100040.34;10431293;28;20049;-54
2022/03/21 07:47:21;;;;;;;3.75;3.00;;;;;;;2.99;68.01;100048.31;10457071;28;20037;-53
2022/03/21 07:52:24;;;;;;;3.80;3.03;;;;;;;3.20;65.09;100043.78;10440835;28;20131;-53
2022/03/21 07:57:27;;;;;;;3.28;2.90;;;;;;;3.49;63.09;100057.47;10442349;28;20071;-53
2022/03/21 08:02:33;;;;;;;3.25;2.83;;;;;;;3.81;61.14;100057.69;10456999;28;20119;-52
2022/03/21 08:07:36;;;;;;;3.75;2.85;;;;;;;4.06;62.71;100053.75;10455372;28;20543;-53
2022/03/21 08:12:42;;;;;;;3.25;2.72;;;;;;;4.36;59.79;100055.75;10428661;28;20049;-53
2022/03/21 08:17:52;;;;;;;5.43;2.78;;;;;;;4.56;59.86;100058.22;10415801;28;20034;-53
2022/03/21 08:22:55;;;;;;;3.20;2.72;;;;;;;4.75;58.02;100058.06;10417212;28;20461;-54
2022/03/21 08:27:58;;;;;;;5.10;3.40;;;;;;;4.99;56.36;100055.00;10455779;28;20067;-52
2022/03/21 08:33:05;;;;;;;3.25;2.95;;;;;;;5.19;56.17;100061.91;10452895;28;20039;-54
2022/03/21 08:38:10;;;;;;;5.47;3.20;;;;;;;5.43;56.06;100053.44;10455658;28;20119;-53
2022/03/21 08:43:14;;;;;;;5.18;3.50;;;;;;;5.58;55.55;100056.19;10455874;28;20048;-54
2022/03/21 08:48:18;;;;;;;3.85;3.40;;;;;;;5.76;56.22;100048.91;10455505;28;20040;-56
2022/03/21 08:53:21;;;;;;;3.40;3.08;;;;;;;5.94;54.16;100052.31;10431385;28;20052;-52
2022/03/21 08:58:25;;;;;;;3.50;3.20;;;;;;;6.14;54.05;100043.97;10413850;28;20042;-54
2022/03/21 09:03:29;;;;;;;3.72;3.20;;;;;;;6.37;53.29;100055.09;10419752;28;20485;-55
2022/03/21 09:08:32;;;;;;;3.50;3.05;;;;;;;6.50;52.56;100048.97;10448966;23;20776;-58
2022/03/21 09:13:35;;;;;;;5.28;3.30;;;;;;;6.76;52.15;100050.88;10390806;28;20042;-57
2022/03/21 09:18:39;;;;;;;4.63;3.20;;;;;;;6.96;51.61;100039.84;10371570;28;20046;-59
2022/03/21 09:23:42;;;;;;;3.50;3.20;;;;;;;7.09;51.82;100046.16;10380298;28;20057;-53
2022/03/21 09:28:45;;;;;;;3.58;3.03;;;;;;;7.27;53.30;100038.72;10412546;28;20037;-57
2022/03/21 09:33:49;;;;;;;4.75;2.90;;;;;;;7.48;51.09;100040.94;10408165;28;20049;-56
2022/03/21 09:38:53;;;;;;;3.55;2.90;;;;;;;7.63;52.68;100039.09;10412251;28;20132;-54
2022/03/21 09:43:57;;;;;;;3.50;2.88;;;;;;;7.79;50.11;100030.88;10410871;28;20052;-56
2022/03/21 09:49:03;;;;;;;5.13;2.95;;;;;;;7.85;49.23;100034.00;10411746;28;20572;-54
2022/03/21 09:54:07;;;;;;;5.82;3.10;;;;;;;7.98;49.01;100034.03;10411534;28;20124;-54
2022/03/21 09:59:10;;;;;;;3.22;2.80;;;;;;;8.22;49.26;100027.09;10411132;28;20404;-55
2022/03/21 10:04:14;;;;;;;3.20;2.90;;;;;;;8.32;46.70;100018.25;10392880;28;20080;-54
2022/03/21 10:09:20;;;;;;;3.83;3.10;;;;;;;8.41;46.59;100023.97;10410398;28;20049;-54
2022/03/21 10:14:27;;;;;;;4.10;3.13;;;;;;;8.55;47.01;100013.13;10388369;28;20471;-55
2022/03/21 10:19:43;;;;;;;3.90;3.00;;;;;;;8.78;45.07;100021.34;10369765;28;20061;-56
2022/03/21 10:24:47;;;;;;;3.08;2.78;;;;;;;9.01;48.04;100010.78;10403648;28;20124;-54
2022/03/21 10:29:51;;;;;;;3.28;2.95;;;;;;;9.15;47.38;100004.41;10409827;28;20077;-53
2022/03/21 10:35:02;;;;;;;5.88;2.85;;;;;;;9.21;44.51;100015.56;10376387;28;20042;-54
2022/03/21 10:40:16;;;;;;;3.72;3.00;;;;;;;9.29;45.35;100006.06;10369454;28;20129;-57
2022/03/21 10:45:19;;;;;;;4.30;2.92;;;;;;;9.58;46.83;100003.03;10409927;28;20065;-58
2022/03/21 10:50:32;;;;;;;3.40;2.97;;;;;;;9.75;46.76;99999.91;10418685;28;20041;-55
2022/03/21 10:55:36;;;;;;;3.25;2.95;;;;;;;9.97;47.58;99999.13;10417096;28;20041;-58
2022/03/21 11:00:39;;;;;;;4.28;3.10;;;;;;;10.13;46.45;99998.78;10400429;28;20139;-59
2022/03/21 11:05:45;;;;;;;3.92;3.10;;;;;;;10.40;47.34;99992.25;10395535;28;20045;-60
2022/03/21 11:10:48;;;;;;;3.40;2.85;;;;;;;10.64;45.00;99996.66;10417789;28;20053;-58
2022/03/21 11:15:52;;;;;;;4.75;3.15;;;;;;;10.69;45.86;99993.59;10417980;28;20060;-60
2022/03/21 11:21:21;;;;;;;5.05;3.05;;;;;;;10.83;41.72;99987.09;10417173;28;20567;-57
2022/03/21 11:26:33;;;;;;;3.58;3.05;;;;;;;10.97;43.98;99996.72;10417092;28;20398;-58
2022/03/21 11:31:51;;;;;;;3.60;2.83;;;;;;;11.05;43.76;99984.34;10416141;28;20053;-56
2022/03/21 11:36:57;;;;;;;4.05;2.90;;;;;;;11.25;43.88;99979.13;10414852;28;20053;-56
2022/03/21 11:42:01;;;;;;;4.25;3.20;;;;;;;11.38;44.08;99971.75;10416447;28;20470;-57
2022/03/21 11:47:24;;;;;;;3.70;3.03;;;;;;;11.71;43.21;99974.44;10416169;28;20060;-58
2022/03/21 11:53:04;;;;;;;3.13;2.83;;;;;;;11.83;43.52;99972.50;10416195;28;20072;-55
2022/03/21 11:58:45;;;;;;;2.95;2.40;;;;;;;12.02;42.89;99964.59;10415697;28;20125;-57
2022/03/21 12:03:48;;;;;;;2.92;2.60;;;;;;;12.24;42.55;99948.34;10392304;28;20420;-58
2022/03/21 12:08:54;;;;;;;3.20;2.70;;;;;;;12.35;42.07;99950.09;10415351;28;20458;-57
2022/03/21 12:14:22;;;;;;;10.63;2.60;;;;;;;12.54;40.33;99950.19;10397140;28;20038;-58
2022/03/21 12:19:25;;;;;;;3.47;2.75;;;;;;;12.67;40.92;99941.84;10374404;28;20061;-58
2022/03/21 12:24:49;;;;;;;4.85;2.80;;;;;;;12.86;40.14;99948.28;10404008;28;20041;-56
2022/03/21 12:29:52;;;;;;;2.85;2.65;;;;;;;13.00;41.23;99937.09;10414423;28;20414;-55
2022/03/21 12:34:56;;;;;;;4.20;2.65;;;;;;;13.09;39.76;99935.41;10391161;28;20078;-57
2022/03/21 12:40:00;;;;;;;3.40;2.60;;;;;;;13.34;39.88;99925.03;10413698;28;20041;-54
2022/03/21 12:45:04;;;;;;;3.25;2.45;;;;;;;13.43;38.97;99929.59;10414010;28;20041;-56
2022/03/21 12:50:07;;;;;;;5.05;2.45;;;;;;;13.73;39.60;99927.72;10413694;28;20864;-54
2022/03/21 12:55:15;;;;;;;10.43;2.50;;;;;;;13.82;36.33;99921.44;10413413;28;20460;-56
2022/03/21 13:00:19;;;;;;;2.78;2.30;;;;;;;14.20;37.88;99915.19;10414071;28;20398;-55
2022/03/21 13:10:50;;;;;;;2.85;2.17;;;;;;;14.66;37.09;99921.56;10412317;28;20100;-56
2022/03/21 13:16:05;;;;;;;5.57;2.20;;;;;;;14.93;34.38;99923.44;10404473;28;20060;-57
2022/03/21 13:21:09;;;;;;;3.22;2.17;;;;;;;14.98;34.47;99914.88;10412724;28;20490;-55
2022/03/21 13:26:16;;;;;;;3.08;2.30;;;;;;;15.28;34.35;99914.66;10412299;28;20061;-58
2022/03/21 13:31:21;;;;;;;6.15;2.17;;;;;;;15.56;33.67;99905.38;10411612;28;20045;-58
2022/03/21 13:36:25;;;;;;;2.17;2.00;;;;;;;15.75;34.47;99908.94;10394510;28;20072;-58
2022/03/21 13:41:29;;;;;;;2.75;2.10;;;;;;;16.09;33.71;99901.88;10394188;28;20054;-58
2022/03/21 13:46:32;;;;;;;2.40;2.20;;;;;;;16.31;32.02;99895.88;10406680;28;20435;-53
2022/03/21 13:51:43;;;;;;;2.10;1.90;;;;;;;16.48;32.24;99887.81;10403020;28;20429;-61
2022/03/21 13:56:50;;;;;;;4.22;2.00;;;;;;;16.78;31.93;99890.94;10370491;28;20045;-61
2022/03/21 14:01:53;;;;;;;4.10;2.10;;;;;;;16.90;31.63;99902.41;10376769;28;20075;-63
2022/03/21 14:06:57;;;;;;;2.97;2.30;;;;;;;17.21;31.47;99899.94;10373125;28;20417;-62
2022/03/21 14:12:05;;;;;;;2.17;1.98;;;;;;;17.33;30.61;99894.19;10376932;28;20053;-63
2022/03/21 14:17:09;;;;;;;3.35;2.17;;;;;;;17.58;32.15;99891.47;10399754;28;20037;-61
2022/03/21 14:22:12;;;;;;;3.03;2.20;;;;;;;17.54;31.70;99893.66;10410429;28;20045;-61
2022/03/21 14:27:16;;;;;;;2.40;2.20;;;;;;;17.75;31.34;99898.59;10410298;28;20045;-57
2022/03/21 14:32:21;;;;;;;2.83;2.30;;;;;;;17.89;31.98;99890.75;10410086;28;20038;-60
2022/03/21 14:37:24;;;;;;;3.05;2.30;;;;;;;17.99;31.56;99891.44;10399087;28;20502;-58
2022/03/21 14:42:28;;;;;;;2.17;1.98;;;;;;;18.14;30.25;99897.00;10381079;28;20049;-61
2022/03/21 14:47:31;;;;;;;2.53;1.83;;;;;;;17.98;29.78;99881.53;10405798;28;20068;-63
2022/03/21 14:52:34;;;;;;;2.33;2.13;;;;;;;18.22;29.46;99894.28;10406959;28;20053;-58
2022/03/21 14:57:38;;;;;;;4.50;2.08;;;;;;;17.90;29.14;99889.72;10409208;28;20049;-56
2022/03/21 15:02:41;;;;;;;3.47;1.90;;;;;;;17.63;28.45;99894.50;10391976;28;20045;-60
2022/03/21 15:07:45;;;;;;;2.80;1.80;;;;;;;17.56;28.70;99886.16;10409448;28;20401;-61
2022/03/21 15:12:50;;;;;;;2.17;1.95;;;;;;;17.58;28.69;99877.84;10408903;28;20058;-61
2022/03/21 15:17:54;;;;;;;2.10;1.70;;;;;;;17.38;27.96;99875.44;10409258;28;20042;-60
2022/03/21 15:22:57;;;;;;;1.70;1.60;;;;;;;17.65;28.60;99881.56;10408483;28;20514;-62
2022/03/21 15:28:05;;;;;;;1.83;1.70;;;;;;;18.02;28.40;99880.19;10408893;28;20077;-55
2022/03/21 15:33:10;;;;;;;2.00;1.80;;;;;;;18.14;28.76;99881.50;10393907;28;20470;-56
2022/03/21 15:43:40;;;;;;;2.05;1.85;;;;;;;17.77;26.77;99882.91;10401475;28;20046;-51
2022/03/21 15:48:47;;;;;;;2.97;1.90;;;;;;;17.53;26.39;99878.31;10393501;28;20041;-55
2022/03/21 15:53:52;;;;;;;2.55;1.92;;;;;;;17.46;28.49;99877.31;10400530;28;20045;-55
2022/03/21 15:59:00;;;;;;;2.10;1.85;;;;;;;17.48;28.53;99875.28;10410148;28;20037;-53
2022/03/21 16:04:04;;;;;;;2.63;1.77;;;;;;;17.23;27.55;99873.38;10405097;28;20490;-59
2022/03/21 16:09:10;;;;;;;2.00;1.80;;;;;;;17.20;28.12;99872.88;10403972;28;20400;-58
2022/03/21 16:14:17;;;;;;;2.22;1.80;;;;;;;17.03;28.29;99870.13;10394734;28;20123;-54
2022/03/21 16:19:21;;;;;;;2.65;1.60;;;;;;;16.94;28.13;99874.72;10394510;28;20725;-57
2022/03/21 16:24:25;;;;;;;2.38;1.90;;;;;;;16.63;28.31;99867.13;10399148;28;20571;-54
2022/03/21 16:29:30;;;;;;;3.38;1.70;;;;;;;16.45;28.36;99867.22;10390827;28;20052;-58
2022/03/21 16:34:34;;;;;;;2.30;1.70;;;;;;;16.22;28.67;99869.66;10395119;28;20046;-54
2022/03/21 16:39:38;;;;;;;1.70;1.60;;;;;;;16.10;29.62;99870.94;10386641;28;20057;-55
2022/03/21 16:44:43;;;;;;;3.20;1.67;;;;;;;16.08;30.64;99867.53;10388632;28;20058;-53
2022/03/21 16:49:47;;;;;;;2.05;1.60;;;;;;;15.97;30.61;99865.97;10396518;28;20465;-52
2022/03/21 16:54:50;;;;;;;3.15;1.77;;;;;;;15.80;30.97;99868.53;10382819;28;20093;-52
2022/03/21 16:59:55;;;;;;;2.65;1.70;;;;;;;15.48;31.15;99870.00;10372226;28;20038;-50
2022/03/21 17:04:58;;;;;;;2.58;2.10;;;;;;;15.07;31.49;99869.63;10373300;28;20062;-57
2022/03/21 17:10:02;;;;;;;3.83;2.25;;;;;;;14.67;32.60;99879.91;10394283;28;20549;-58
2022/03/21 17:15:08;;;;;;;3.85;2.10;;;;;;;14.16;32.94;99871.28;10411468;28;20091;-57
2022/03/21 17:25:33;;;;;;;3.28;2.03;;;;;;;13.17;33.98;99878.72;10377356;28;20049;-54
2022/03/21 17:30:38;;;;;;;2.85;2.33;;;;;;;12.66;34.36;99872.53;10408078;28;20523;-53
2022/03/21 17:35:42;;;;;;;2.70;2.15;;;;;;;12.29;34.73;99868.56;10390728;28;20054;-55
2022/03/21 17:40:46;;;;;;;3.58;2.72;;;;;;;11.95;35.01;99876.09;10396444;28;20033;-56
2022/03/21 17:45:50;;;;;;;2.58;2.38;;;;;;;11.47;35.83;99880.19;10387848;28;20034;-58
2022/03/21 17:50:56;;;;;;;3.22;2.70;;;;;;;11.07;36.62;99887.09;10388481;28;20121;-57
2022/03/21 17:56:01;;;;;;;3.28;2.50;;;;;;;10.74;37.37;99895.19;10404811;28;20053;-59
2022/03/21 18:01:08;;;;;;;3.95;3.08;;;;;;;10.44;37.39;99896.69;10410886;28;20034;-56
2022/03/21 18:06:13;;;;;;;2.80;2.50;;;;;;;10.10;37.58;99906.63;10409988;28;20084;-55
2022/03/21 18:11:16;;;;;;;4.40;2.70;;;;;;;9.81;38.25;99902.53;10410140;28;20120;-60
2022/03/21 18:16:23;;;;;;;4.50;2.80;;;;;;;9.52;39.31;99902.13;10395996;28;20056;-55
2022/03/21 18:21:31;;;;;;;3.83;2.92;;;;;;;9.33;40.09;99910.72;10401883;28;20056;-55
2022/03/21 18:26:34;;;;;;;2.90;2.60;;;;;;;9.17;39.73;99903.81;10396890;28;20414;-58
2022/03/21 18:31:39;;;;;;;6.03;2.95;;;;;;;9.05;40.09;99915.47;10371376;28;20124;-59
2022/03/21 18:36:42;;;;;;;5.47;3.30;;;;;;;8.88;40.44;99909.53;10408301;28;20055;-58
2022/03/21 18:41:45;;;;;;;3.95;3.08;;;;;;;8.71;41.00;99913.44;10410639;28;20048;-56
2022/03/21 18:46:50;;;;;;;3.70;3.20;;;;;;;8.57;41.81;99917.16;10393886;28;20096;-56
2022/03/21 18:51:53;;;;;;;4.10;3.60;;;;;;;8.42;42.27;99923.59;10405110;28;20121;-55
2022/03/21 18:56:57;;;;;;;4.45;3.20;;;;;;;8.26;42.62;99918.47;10369524;28;20084;-56
2022/03/21 19:02:02;;;;;;;4.35;3.05;;;;;;;8.14;42.81;99930.97;10374391;28;20037;-58
2022/03/21 19:07:05;;;;;;;4.00;3.30;;;;;;;8.04;43.53;99927.22;10411890;28;20033;-60
2022/03/21 19:12:09;;;;;;;3.70;3.05;;;;;;;7.96;43.53;99931.28;10417594;28;20049;-56
2022/03/21 19:17:33;;;;;;;;;;;;;;;7.90;44.11;99934.41;10418310;28;20041;-56
2022/03/21 19:22:36;;;;;;;3.92;3.28;;;;;;;7.81;43.64;99937.72;10406172;28;19926;-54
2022/03/21 19:27:47;;;;;;;4.72;3.00;;;;;;;7.74;43.87;99952.50;10375715;28;20049;-55
2022/03/21 19:32:53;;;;;;;3.28;2.97;;;;;;;7.71;44.02;99949.06;10380007;28;20045;-57
2022/03/21 19:37:58;;;;;;;6.57;3.33;;;;;;;7.68;44.48;99951.97;10403301;28;20045;-56
2022/03/21 19:43:03;;;;;;;4.85;3.10;;;;;;;7.61;44.53;99955.19;10414706;28;20060;-54
2022/03/21 19:48:08;;;;;;;4.20;3.20;;;;;;;7.51;44.97;99945.09;10415919;28;20097;-56
2022/03/21 19:53:11;;;;;;;3.58;3.08;;;;;;;7.49;45.30;99956.84;10414723;28;20120;-57
2022/03/21 19:58:16;;;;;;;3.75;3.20;;;;;;;7.43;45.14;99962.66;10415528;28;20044;-58
2022/03/21 20:03:21;;;;;;;5.25;3.15;;;;;;;7.38;45.42;99965.63;10415442;28;20526;-60
2022/03/21 20:08:24;;;;;;;3.63;3.10;;;;;;;7.32;46.02;99964.22;10414494;28;20469;-58
2022/03/21 20:13:28;;;;;;;4.03;3.08;;;;;;;7.29;46.41;99961.75;10392869;28;20057;-55
2022/03/21 20:18:33;;;;;;;3.33;3.03;;;;;;;7.25;46.05;99970.94;10405458;28;20064;-53
2022/03/21 20:23:36;;;;;;;4.45;2.97;;;;;;;7.17;46.67;99957.19;10392326;28;20099;-54
2022/03/21 20:28:40;;;;;;;3.10;2.80;;;;;;;7.12;47.36;99960.19;10414620;28;20490;-54
2022/03/21 20:33:45;;;;;;;3.47;3.17;;;;;;;7.06;47.26;99958.78;10409536;28;20048;-53
2022/03/21 20:38:48;;;;;;;3.30;3.00;;;;;;;6.97;47.15;99966.53;10414393;28;20073;-52
2022/03/21 20:43:53;;;;;;;3.35;3.03;;;;;;;6.92;47.85;99969.53;10414408;28;20049;-53
2022/03/21 20:48:58;;;;;;;3.33;3.03;;;;;;;6.86;47.76;99964.56;10413591;28;20046;-53
2022/03/21 20:54:01;;;;;;;3.85;3.20;;;;;;;6.79;47.97;99975.66;10413986;28;20144;-60
2022/03/21 20:59:04;;;;;;;3.65;2.88;;;;;;;6.74;48.23;99982.28;10412586;28;20128;-58
2022/03/21 21:04:09;;;;;;;4.38;3.38;;;;;;;6.72;47.88;99979.72;10390477;28;20586;-55
2022/03/21 21:09:12;;;;;;;4.22;3.00;;;;;;;6.68;47.97;99978.19;10427359;22;20132;-58
2022/03/21 21:14:16;;;;;;;4.20;2.92;;;;;;;6.65;48.25;99967.66;10404667;28;20116;-56
2022/03/21 21:19:20;;;;;;;3.20;2.90;;;;;;;6.60;47.86;99972.47;10412707;28;20046;-54
2022/03/21 21:24:23;;;;;;;3.60;2.85;;;;;;;6.57;48.37;99980.69;10372365;28;20579;-56
2022/03/21 21:29:26;;;;;;;3.45;3.13;;;;;;;6.52;48.66;99978.31;10353123;28;20417;-58
2022/03/21 21:34:31;;;;;;;3.10;2.80;;;;;;;6.47;48.05;99988.41;10377332;28;20045;-56
2022/03/21 21:39:34;;;;;;;3.42;2.80;;;;;;;6.41;48.52;99970.94;10331083;28;20058;-57
2022/03/21 21:44:37;;;;;;;5.38;3.15;;;;;;;6.37;48.74;99973.91;10355848;28;20516;-56
2022/03/21 21:49:45;;;;;;;3.33;3.03;;;;;;;6.32;48.68;99977.75;10353160;28;20775;-58
2022/03/21 21:55:07;;;;;;;4.95;3.03;;;;;;;6.29;48.77;99982.44;10370307;28;20053;-56
2022/03/21 22:00:12;;;;;;;4.10;2.88;;;;;;;6.23;48.69;99983.69;10352798;28;20102;-59
2022/03/21 22:05:19;;;;;;;3.60;3.17;;;;;;;6.17;48.71;99973.34;10365191;28;20118;-57
2022/03/21 22:10:23;;;;;;;4.70;3.00;;;;;;;6.11;49.06;99977.25;10329567;28;20054;-57
2022/03/21 22:15:26;;;;;;;3.42;2.92;;;;;;;6.08;48.80;99973.91;10343550;28;20135;-54
2022/03/21 22:20:31;;;;;;;3.70;3.22;;;;;;;6.03;48.92;99976.88;10394301;28;20045;-57
2022/03/21 22:25:36;;;;;;;3.45;3.00;;;;;;;6.00;48.69;99985.06;10377873;28;20049;-58
2022/03/21 22:30:39;;;;;;;4.13;2.92;;;;;;;5.97;48.93;99986.09;10369721;28;20499;-55
2022/03/21 22:35:43;;;;;;;6.07;3.40;;;;;;;5.93;48.90;99979.19;10367537;28;20070;-57
2022/03/21 22:51:29;;;;;;;7.60;2.90;;;;;;;5.49;51.65;99986.25;10351662;28;20507;-54
2022/03/21 22:56:33;;;;;;;5.55;3.00;;;;;;;5.34;51.96;99984.50;10352010;28;20042;-53
2022/03/21 23:01:37;;;;;;;3.95;3.25;;;;;;;5.14;51.99;99981.13;10351491;28;20132;-54
2022/03/21 23:06:42;;;;;;;4.32;3.03;;;;;;;5.06;51.63;99980.72;10369758;28;20049;-56
2022/03/21 23:11:47;;;;;;;4.13;3.17;;;;;;;5.07;52.02;99990.47;10351062;28;20042;-59
2022/03/21 23:16:50;;;;;;;4.88;3.20;;;;;;;5.07;52.34;99977.94;10369868;28;20425;-56
2022/03/21 23:21:55;;;;;;;3.75;3.25;;;;;;;5.03;52.00;99978.22;10401108;28;20540;-58
2022/03/21 23:26:58;;;;;;;4.18;3.15;;;;;;;5.06;51.96;99983.41;10351241;28;20050;-57
2022/03/21 23:32:01;;;;;;;3.45;2.80;;;;;;;5.10;51.11;99984.94;10376355;28;20045;-59
2022/03/21 23:37:06;;;;;;;3.85;2.90;;;;;;;5.07;51.49;99987.78;10347966;28;20113;-56
2022/03/21 23:42:21;;;;;;;3.38;3.08;;;;;;;5.07;51.66;99990.47;10333399;28;20041;-58
2022/03/21 23:47:24;;;;;;;3.20;2.90;;;;;;;5.13;50.45;99995.44;10368937;28;20048;-57
2022/03/21 23:52:28;;;;;;;2.97;2.60;;;;;;;5.14;49.79;99999.00;10371493;28;20508;-55
2022/03/21 23:57:31;;;;;;;3.40;2.72;;;;;;;5.12;49.77;99996.38;10372025;28;20045;-53
